createdAt,value
2023-03-08T00:01:29.843Z,5.10
2023-03-08T00:03:58.779Z,4.70
2023-03-08T00:06:28.273Z,4.80
2023-03-08T00:09:01.945Z,5.90
2023-03-08T00:11:30.918Z,6.50
2023-03-08T00:13:59.333Z,6.50
2023-03-08T00:16:27.764Z,6.80
2023-03-08T00:18:56.084Z,5.70
2023-03-08T00:21:24.452Z,8.00
2023-03-08T00:23:54.354Z,5.90
2023-03-08T00:26:23.178Z,6.90
2023-03-08T00:28:52.856Z,5.70
2023-03-08T00:31:21.713Z,6.30
2023-03-08T00:33:55.332Z,5.50
2023-03-08T00:36:23.930Z,5.80
2023-03-08T00:38:52.641Z,6.20
2023-03-08T00:41:21.131Z,6.80
2023-03-08T00:43:50.293Z,7.40
2023-03-08T00:46:18.709Z,7.30
2023-03-08T00:48:47.193Z,6.40
2023-03-08T00:51:17.605Z,7.70
2023-03-08T00:53:46.179Z,6.70
2023-03-08T00:56:14.980Z,8.50
2023-03-08T00:58:43.579Z,8.60
2023-03-08T01:01:16.921Z,7.90
2023-03-08T01:03:45.605Z,8.10
2023-03-08T01:06:16.038Z,8.60
2023-03-08T01:08:44.842Z,7.70
2023-03-08T01:11:26.986Z,8.10
2023-03-08T01:13:55.612Z,8.70
2023-03-08T01:16:28.866Z,8.30
2023-03-08T01:18:58.180Z,9.20
2023-03-08T01:21:28.920Z,8.10
2023-03-08T01:23:58.290Z,9.70
2023-03-08T01:26:27.933Z,8.50
2023-03-08T01:28:57.619Z,8.80
2023-03-08T01:31:29.965Z,7.60
2023-03-08T01:33:58.765Z,9.40
2023-03-08T01:36:28.654Z,6.90
2023-03-08T01:39:00.361Z,6.70
2023-03-08T01:41:31.506Z,7.90
2023-03-08T01:44:00.332Z,7.00
2023-03-08T01:46:35.943Z,7.70
2023-03-08T01:49:13.454Z,9.20
2023-03-08T01:52:07.070Z,7.20
2023-03-08T01:54:55.160Z,6.60
2023-03-08T01:57:49.620Z,6.10
2023-03-08T02:00:25.336Z,6.10
2023-03-08T02:03:08.436Z,5.50
2023-03-08T02:05:40.211Z,4.80
2023-03-08T02:08:08.800Z,5.70
2023-03-08T02:10:38.346Z,5.40
2023-03-08T02:13:09.213Z,5.50
2023-03-08T02:15:37.570Z,5.90
2023-03-08T02:18:05.895Z,5.60
2023-03-08T02:20:40.534Z,5.80
2023-03-08T02:23:27.219Z,6.20
2023-03-08T02:26:05.674Z,6.60
2023-03-08T02:28:34.369Z,6.50
2023-03-08T02:31:02.785Z,5.80
2023-03-08T02:33:32.406Z,6.00
2023-03-08T02:36:06.237Z,5.90
2023-03-08T02:38:34.655Z,6.30
2023-03-08T02:41:03.000Z,6.30
2023-03-08T02:43:31.440Z,4.90
2023-03-08T02:45:59.915Z,4.10
2023-03-08T02:48:28.366Z,5.20
2023-03-08T02:50:56.682Z,4.20
2023-03-08T02:53:25.009Z,4.90
2023-03-08T02:55:53.317Z,4.60
2023-03-08T02:58:21.644Z,4.00
2023-03-08T03:00:50.003Z,4.40
2023-03-08T03:03:18.355Z,3.70
2023-03-08T03:05:46.797Z,3.80
2023-03-08T03:08:15.189Z,4.30
2023-03-08T03:10:43.643Z,3.90
2023-03-08T03:13:11.983Z,3.90
2023-03-08T03:15:40.541Z,3.90
2023-03-08T03:18:08.927Z,3.30
2023-03-08T03:20:37.448Z,3.30
2023-03-08T03:23:06.469Z,2.40
2023-03-08T03:25:38.268Z,3.20
2023-03-08T03:28:06.628Z,2.50
2023-03-08T03:30:34.974Z,3.90
2023-03-08T03:33:03.310Z,3.00
2023-03-08T03:35:31.653Z,2.70
2023-03-08T03:38:00.000Z,2.70
2023-03-08T03:40:28.341Z,2.40
2023-03-08T03:42:56.641Z,2.90
2023-03-08T03:45:25.006Z,2.20
2023-03-08T03:47:53.365Z,2.80
2023-03-08T03:50:21.746Z,2.40
2023-03-08T03:52:50.169Z,2.40
2023-03-08T03:55:18.507Z,2.30
2023-03-08T03:57:46.922Z,2.40
2023-03-08T04:00:16.060Z,3.60
2023-03-08T04:02:44.369Z,3.00
2023-03-08T04:05:12.793Z,2.50
2023-03-08T04:07:41.070Z,2.40
2023-03-08T04:10:10.159Z,2.50
2023-03-08T04:12:38.505Z,3.20
2023-03-08T04:15:07.911Z,3.00
2023-03-08T04:17:36.265Z,3.00
2023-03-08T04:20:06.193Z,2.70
2023-03-08T04:22:34.514Z,3.30
2023-03-08T04:25:04.040Z,2.50
2023-03-08T04:27:32.411Z,2.60
2023-03-08T04:30:00.716Z,2.80
2023-03-08T04:32:31.642Z,3.20
2023-03-08T04:35:00.184Z,3.00
2023-03-08T04:37:28.650Z,2.60
2023-03-08T04:39:57.019Z,2.90
2023-03-08T04:42:25.968Z,2.70
2023-03-08T04:44:54.504Z,3.20
2023-03-08T04:47:22.835Z,3.30
2023-03-08T04:49:51.287Z,2.80
2023-03-08T04:52:19.630Z,2.50
2023-03-08T04:54:48.098Z,2.20
2023-03-08T04:57:16.448Z,2.20
2023-03-08T04:59:45.219Z,2.40
2023-03-08T05:02:13.553Z,2.40
2023-03-08T05:04:42.072Z,2.20
2023-03-08T05:07:10.476Z,2.40
2023-03-08T05:09:38.781Z,2.20
2023-03-08T05:12:07.711Z,2.60
2023-03-08T05:14:36.223Z,2.60
2023-03-08T05:17:04.584Z,2.80
2023-03-08T05:19:32.892Z,2.70
2023-03-08T05:22:01.189Z,2.90
2023-03-08T05:24:29.539Z,2.60
2023-03-08T05:26:57.898Z,2.70
2023-03-08T05:29:26.212Z,3.60
2023-03-08T05:31:54.573Z,3.30
2023-03-08T05:34:22.900Z,2.70
2023-03-08T05:36:51.196Z,3.00
2023-03-08T05:39:19.629Z,3.10
2023-03-08T05:41:48.754Z,3.20
2023-03-08T05:44:17.093Z,3.20
2023-03-08T05:46:45.420Z,4.20
2023-03-08T05:49:13.764Z,4.70
2023-03-08T05:51:42.442Z,3.80
2023-03-08T05:54:10.730Z,3.50
2023-03-08T05:56:39.077Z,3.40
2023-03-08T05:59:07.427Z,3.40
2023-03-08T06:01:35.776Z,6.20
2023-03-08T06:04:04.233Z,6.50
2023-03-08T06:06:34.097Z,7.10
2023-03-08T06:09:03.293Z,5.90
2023-03-08T06:11:31.636Z,7.50
2023-03-08T06:13:59.931Z,6.40
2023-03-08T06:16:28.291Z,5.90
2023-03-08T06:18:56.580Z,5.50
2023-03-08T06:21:24.914Z,5.70
2023-03-08T06:23:53.336Z,5.60
2023-03-08T06:26:21.726Z,5.90
2023-03-08T06:28:49.988Z,4.70
2023-03-08T06:31:19.126Z,5.40
2023-03-08T06:33:47.656Z,5.80
2023-03-08T06:36:20.536Z,5.50
2023-03-08T06:38:49.507Z,5.60
2023-03-08T06:41:20.322Z,6.90
2023-03-08T06:43:48.998Z,6.70
2023-03-08T06:46:19.074Z,6.60
2023-03-08T06:48:49.105Z,6.10
2023-03-08T06:51:19.027Z,6.70
2023-03-08T06:53:47.836Z,5.90
2023-03-08T06:56:17.973Z,6.80
2023-03-08T06:58:46.545Z,7.80
2023-03-08T07:01:15.035Z,7.60
2023-03-08T07:03:45.361Z,6.50
2023-03-08T07:06:13.719Z,7.80
2023-03-08T07:08:42.260Z,7.60
2023-03-08T07:11:10.978Z,7.10
2023-03-08T07:13:39.514Z,7.30
2023-03-08T07:16:11.160Z,6.70
2023-03-08T07:18:40.673Z,5.90
2023-03-08T07:21:10.345Z,9.50
2023-03-08T07:23:38.910Z,5.30
2023-03-08T07:26:08.994Z,5.90
2023-03-08T07:28:37.472Z,14.00
2023-03-08T07:31:06.282Z,8.00
2023-03-08T07:33:34.653Z,9.50
2023-03-08T07:36:03.288Z,7.30
2023-03-08T07:38:31.787Z,10.70
2023-03-08T07:41:00.112Z,9.20
2023-03-08T07:43:28.539Z,8.50
2023-03-08T07:46:01.500Z,6.20
2023-03-08T07:48:32.095Z,6.30
2023-03-08T07:51:09.605Z,7.60
2023-03-08T07:53:38.590Z,6.20
2023-03-08T07:56:07.591Z,6.40
2023-03-08T07:58:36.007Z,5.50
2023-03-08T08:01:13.483Z,5.20
2023-03-08T08:03:42.086Z,5.60
2023-03-08T08:06:10.554Z,4.90
2023-03-08T08:08:39.073Z,5.50
2023-03-08T08:11:16.838Z,5.10
2023-03-08T08:13:46.981Z,4.80
2023-03-08T08:16:16.936Z,4.00
2023-03-08T08:18:45.979Z,4.20
2023-03-08T08:21:16.556Z,5.00
2023-03-08T08:23:45.254Z,5.10
2023-03-08T08:26:18.039Z,4.90
2023-03-08T08:28:53.288Z,11.50
2023-03-08T08:31:25.792Z,5.20
2023-03-08T08:33:54.236Z,4.40
2023-03-08T08:36:23.112Z,4.30
2023-03-08T08:38:52.307Z,5.30
2023-03-08T08:41:23.381Z,5.60
2023-03-08T08:43:52.348Z,3.70
2023-03-08T08:46:20.688Z,4.50
2023-03-08T08:48:49.102Z,3.00
2023-03-08T08:51:17.529Z,3.50
2023-03-08T08:53:45.867Z,4.80
2023-03-08T08:56:26.649Z,5.00
2023-03-08T08:59:03.351Z,5.90
2023-03-08T09:01:33.392Z,5.50
2023-03-08T09:04:01.776Z,4.80
2023-03-08T09:06:31.080Z,6.80
2023-03-08T09:08:59.998Z,6.30
2023-03-08T09:11:29.144Z,7.40
2023-03-08T09:13:57.838Z,7.30
2023-03-08T09:16:32.539Z,6.60
2023-03-08T09:19:04.585Z,6.10
2023-03-08T09:21:33.680Z,5.10
2023-03-08T09:24:05.917Z,5.00
2023-03-08T09:26:35.468Z,5.50
2023-03-08T09:29:07.656Z,6.50
2023-03-08T09:31:38.196Z,5.70
2023-03-08T09:34:09.365Z,5.90
2023-03-08T09:36:39.742Z,6.10
2023-03-08T09:39:11.268Z,5.30
2023-03-08T09:41:59.235Z,6.10
2023-03-08T09:45:07.369Z,5.90
2023-03-08T09:47:48.279Z,6.10
2023-03-08T09:50:52.403Z,5.70
2023-03-08T09:54:07.158Z,6.10
2023-03-08T09:56:50.050Z,6.70
2023-03-08T09:59:52.432Z,5.50
2023-03-08T10:03:14.496Z,5.50
2023-03-08T10:05:58.283Z,5.70
2023-03-08T10:08:38.320Z,5.30
2023-03-08T10:11:20.614Z,5.70
2023-03-08T10:13:54.253Z,5.80
2023-03-08T10:16:35.147Z,6.00
2023-03-08T10:19:27.725Z,5.50
2023-03-08T10:22:00.669Z,6.80
2023-03-08T10:24:43.872Z,6.00
2023-03-08T10:27:28.603Z,7.80
2023-03-08T10:30:00.179Z,6.40
2023-03-08T10:32:29.660Z,6.60
2023-03-08T10:35:04.770Z,5.80
2023-03-08T10:37:34.386Z,5.80
2023-03-08T10:40:19.059Z,5.30
2023-03-08T10:43:00.957Z,5.70
2023-03-08T10:45:30.339Z,5.50
2023-03-08T10:48:04.713Z,5.60
2023-03-08T10:50:37.704Z,4.90
2023-03-08T10:53:16.699Z,4.60
2023-03-08T10:55:51.219Z,5.30
2023-03-08T10:58:31.937Z,5.00
2023-03-08T11:01:26.853Z,4.40
2023-03-08T11:04:16.250Z,5.00
2023-03-08T11:06:44.850Z,5.10
2023-03-08T11:09:26.654Z,4.50
2023-03-08T11:11:57.315Z,4.30
2023-03-08T11:14:27.833Z,4.60
2023-03-08T11:17:13.087Z,4.50
2023-03-08T11:20:08.012Z,3.80
2023-03-08T11:23:41.324Z,3.10
2023-03-08T11:26:35.737Z,3.60
2023-03-08T11:29:27.195Z,4.30
2023-03-08T11:32:18.590Z,4.20
2023-03-08T11:35:04.532Z,4.50
2023-03-08T11:40:22.427Z,4.40
2023-03-08T11:43:21.220Z,4.40
2023-03-08T11:46:24.705Z,7.30
2023-03-08T11:49:22.247Z,5.90
2023-03-08T11:51:59.925Z,4.30
2023-03-08T11:55:07.673Z,5.20
2023-03-08T11:57:42.993Z,6.30
2023-03-08T12:02:54.344Z,6.90
2023-03-08T12:05:51.099Z,6.50
2023-03-08T12:08:44.189Z,6.50
2023-03-08T12:11:26.264Z,7.00
2023-03-08T12:14:23.196Z,7.70
2023-03-08T12:17:08.096Z,7.50
2023-03-08T12:19:43.984Z,6.60
2023-03-08T12:22:39.325Z,6.50
2023-03-08T12:25:20.995Z,6.40
2023-03-08T12:28:00.129Z,6.60
2023-03-08T12:30:49.705Z,8.00
2023-03-08T12:33:19.011Z,5.90
2023-03-08T12:36:07.030Z,7.00
2023-03-08T12:38:41.017Z,6.00
2023-03-08T12:41:31.128Z,5.20
2023-03-08T12:44:23.766Z,5.50
2023-03-08T12:47:03.477Z,6.00
2023-03-08T12:49:42.421Z,6.60
2023-03-08T12:52:19.842Z,6.20
2023-03-08T12:55:01.052Z,6.50
2023-03-08T12:57:45.862Z,5.60
2023-03-08T13:00:20.189Z,6.20
2023-03-08T13:03:25.754Z,6.50
2023-03-08T13:05:54.285Z,6.10
2023-03-08T13:08:41.642Z,5.70
2023-03-08T13:11:15.073Z,7.20
2023-03-08T13:14:01.030Z,7.10
2023-03-08T13:16:39.182Z,8.80
2023-03-08T13:19:13.786Z,7.00
2023-03-08T13:22:01.271Z,7.80
2023-03-08T13:24:56.844Z,7.90
2023-03-08T13:27:46.035Z,7.80
2023-03-08T13:30:33.724Z,8.60
2023-03-08T13:33:09.519Z,8.60
2023-03-08T13:35:38.127Z,8.10
2023-03-08T13:38:06.726Z,8.20
2023-03-08T13:40:37.822Z,9.00
2023-03-08T13:43:28.383Z,8.70
2023-03-08T13:46:04.594Z,8.80
2023-03-08T13:48:35.666Z,10.00
2023-03-08T13:51:04.426Z,8.90
2023-03-08T13:53:37.511Z,9.80
2023-03-08T13:56:07.705Z,9.00
2023-03-08T13:58:46.052Z,9.30
2023-03-08T14:01:22.427Z,10.70
2023-03-08T14:03:55.019Z,11.20
2023-03-08T14:06:30.119Z,10.00
2023-03-08T14:09:03.601Z,10.70
2023-03-08T14:11:36.716Z,9.80
2023-03-08T14:14:14.429Z,9.50
2023-03-08T14:16:43.645Z,10.90
2023-03-08T14:19:24.574Z,11.40
2023-03-08T14:22:00.282Z,10.90
2023-03-08T14:24:35.242Z,11.60
2023-03-08T14:27:15.645Z,11.00
2023-03-08T14:29:45.622Z,10.40
2023-03-08T14:32:14.286Z,10.90
2023-03-08T14:34:46.534Z,9.60
2023-03-08T14:37:31.340Z,10.60
2023-03-08T14:40:21.947Z,11.10
2023-03-08T14:42:57.367Z,9.90
2023-03-08T14:45:39.528Z,11.10
2023-03-08T14:48:34.457Z,10.50
2023-03-08T14:51:16.174Z,11.20
2023-03-08T14:53:57.051Z,13.50
2023-03-08T14:56:25.632Z,19.60
2023-03-08T14:58:54.057Z,13.80
2023-03-08T15:01:35.601Z,12.20
2023-03-08T15:04:16.574Z,11.00
2023-03-08T15:06:46.333Z,11.70
2023-03-08T15:09:19.321Z,10.20
2023-03-08T15:11:51.354Z,11.10
2023-03-08T15:14:19.720Z,10.50
2023-03-08T15:16:48.182Z,10.80
2023-03-08T15:19:16.725Z,11.50
2023-03-08T15:21:45.147Z,12.00
2023-03-08T15:24:18.790Z,10.50
2023-03-08T15:26:48.055Z,13.10
2023-03-08T15:29:32.731Z,13.00
2023-03-08T15:32:01.137Z,13.20
2023-03-08T15:34:29.522Z,12.60
2023-03-08T15:36:58.087Z,14.90
2023-03-08T15:39:26.553Z,13.40
2023-03-08T15:41:54.961Z,13.50
2023-03-08T15:44:23.306Z,13.20
2023-03-08T15:46:52.968Z,10.10
2023-03-08T15:49:21.424Z,13.80
2023-03-08T15:51:49.827Z,15.70
2023-03-08T15:54:18.156Z,15.00
2023-03-08T15:56:46.501Z,15.40
2023-03-08T15:59:15.064Z,10.90
2023-03-08T16:01:43.404Z,13.00
2023-03-08T16:04:11.713Z,13.40
2023-03-08T16:06:43.727Z,14.60
2023-03-08T16:09:12.148Z,13.40
2023-03-08T16:11:40.613Z,13.10
2023-03-08T16:14:08.964Z,10.70
2023-03-08T16:16:45.321Z,12.50
2023-03-08T16:19:14.335Z,14.50
2023-03-08T16:21:42.733Z,18.90
2023-03-08T16:24:11.786Z,22.50
2023-03-08T16:26:40.238Z,23.50
2023-03-08T16:29:09.740Z,20.50
2023-03-08T16:31:38.140Z,21.20
2023-03-08T16:34:06.708Z,21.70
2023-03-08T16:36:35.238Z,18.00
2023-03-08T16:39:05.779Z,13.90
2023-03-08T16:41:38.050Z,11.80
2023-03-08T16:44:07.447Z,12.30
2023-03-08T16:46:36.643Z,12.20
2023-03-08T16:49:04.983Z,13.10
2023-03-08T16:51:33.347Z,16.10
2023-03-08T16:54:01.734Z,16.60
2023-03-08T16:56:30.491Z,19.20
2023-03-08T16:59:01.071Z,18.40
2023-03-08T17:01:31.379Z,19.30
2023-03-08T17:04:00.176Z,17.10
2023-03-08T17:06:32.152Z,19.90
2023-03-08T17:09:01.192Z,17.40
2023-03-08T17:11:35.705Z,18.10
2023-03-08T17:14:10.849Z,18.40
2023-03-08T17:16:43.460Z,21.40
2023-03-08T17:19:13.253Z,18.90
2023-03-08T17:21:41.688Z,20.00
2023-03-08T17:24:14.438Z,19.20
2023-03-08T17:26:46.596Z,20.80
2023-03-08T17:29:15.280Z,19.20
2023-03-08T17:31:44.322Z,20.70
2023-03-08T17:34:13.852Z,19.50
2023-03-08T17:36:44.581Z,19.70
2023-03-08T17:39:14.212Z,18.80
2023-03-08T17:41:44.671Z,19.00
2023-03-08T17:44:13.986Z,16.40
2023-03-08T17:46:42.572Z,16.70
2023-03-08T17:49:13.096Z,21.10
2023-03-08T17:51:42.559Z,21.20
2023-03-08T17:54:11.843Z,21.00
2023-03-08T17:56:41.035Z,20.30
2023-03-08T17:59:17.484Z,19.00
2023-03-08T18:01:45.878Z,16.70
2023-03-08T18:04:14.544Z,16.00
2023-03-08T18:06:43.552Z,17.30
2023-03-08T18:09:15.756Z,15.10
2023-03-08T18:11:44.451Z,15.20
2023-03-08T18:17:24.355Z,14.40
2023-03-08T18:19:52.764Z,14.90
2023-03-08T18:22:21.122Z,13.50
2023-03-08T18:24:49.406Z,12.90
2023-03-08T18:27:17.877Z,13.90
2023-03-08T18:29:46.235Z,14.00
2023-03-08T18:32:14.585Z,12.90
2023-03-08T18:34:43.183Z,14.80
2023-03-08T18:37:11.831Z,14.30
2023-03-08T18:39:40.259Z,14.10
2023-03-08T18:42:08.713Z,13.70
2023-03-08T18:44:38.674Z,14.40
2023-03-08T18:47:07.296Z,13.70
2023-03-08T18:49:35.595Z,14.70
2023-03-08T18:52:05.188Z,13.80
2023-03-08T18:54:34.205Z,15.00
2023-03-08T18:57:02.613Z,15.40
2023-03-08T18:59:33.341Z,15.30
2023-03-08T19:02:01.926Z,16.00
2023-03-08T19:04:30.425Z,16.50
2023-03-08T19:06:58.889Z,15.70
2023-03-08T19:09:27.342Z,15.90
2023-03-08T19:11:55.696Z,15.70
2023-03-08T19:14:24.173Z,18.10
2023-03-08T19:16:52.590Z,15.70
2023-03-08T19:19:21.515Z,15.50
2023-03-08T19:21:50.000Z,14.90
2023-03-08T19:24:20.539Z,14.90
2023-03-08T19:26:57.329Z,14.30
2023-03-08T19:29:32.169Z,13.20
2023-03-08T19:32:07.042Z,17.70
2023-03-08T19:34:42.208Z,15.20
2023-03-08T19:37:13.463Z,14.30
2023-03-08T19:39:43.664Z,16.10
2023-03-08T19:42:15.439Z,14.90
2023-03-08T19:44:48.525Z,15.50
2023-03-08T19:47:20.039Z,14.80
2023-03-08T19:49:49.590Z,14.70
2023-03-08T19:52:18.108Z,13.90
2023-03-08T19:54:46.672Z,15.80
2023-03-08T19:57:15.108Z,13.90
2023-03-08T19:59:43.402Z,14.00
2023-03-08T20:02:12.700Z,17.70
2023-03-08T20:04:41.114Z,17.10
2023-03-08T20:07:09.698Z,17.20
2023-03-08T20:09:38.214Z,15.20
2023-03-08T20:12:06.637Z,14.80
2023-03-08T20:14:36.573Z,16.20
2023-03-08T20:17:05.292Z,14.90
2023-03-08T20:19:34.256Z,14.70
2023-03-08T20:22:52.418Z,16.30
2023-03-08T20:25:20.821Z,16.60
2023-03-08T20:27:49.173Z,15.50
2023-03-08T20:30:18.385Z,15.10
2023-03-08T20:32:46.916Z,15.50
2023-03-08T20:46:55.327Z,17.80
2023-03-08T20:49:24.332Z,17.20
2023-03-08T20:51:52.679Z,17.50
2023-03-08T20:54:21.137Z,19.40
2023-03-08T20:59:05.984Z,17.30
2023-03-08T21:01:34.359Z,19.20
2023-03-08T21:04:03.166Z,19.30
2023-03-08T21:06:32.106Z,19.80
2023-03-08T21:09:01.796Z,20.60
2023-03-08T21:11:30.228Z,20.60
2023-03-08T21:13:58.800Z,20.20
2023-03-08T21:16:28.792Z,22.10
2023-03-08T21:19:01.526Z,21.60
2023-03-08T21:21:36.046Z,22.30
2023-03-08T21:29:30.101Z,20.70
2023-03-08T21:31:59.451Z,24.80
2023-03-08T21:34:28.009Z,23.50
2023-03-08T21:36:56.711Z,25.50
2023-03-08T21:39:26.902Z,25.00
2023-03-08T21:41:57.095Z,29.00
2023-03-08T21:44:25.748Z,28.60
2023-03-08T21:46:55.464Z,28.50
2023-03-08T21:49:30.958Z,26.90
2023-03-08T21:51:59.784Z,28.10
2023-03-08T21:54:31.083Z,28.50
2023-03-08T21:56:59.957Z,28.00
2023-03-08T21:59:29.274Z,28.80
2023-03-08T22:01:58.801Z,30.30
2023-03-08T22:04:28.241Z,31.00
2023-03-08T22:06:57.240Z,30.00
2023-03-08T22:09:28.161Z,28.90
2023-03-08T22:12:00.029Z,27.10
2023-03-08T22:14:28.776Z,26.80
2023-03-08T22:16:57.597Z,26.10
2023-03-08T22:19:26.393Z,29.10
2023-03-08T22:21:54.797Z,26.60
2023-03-08T22:24:23.212Z,28.90
2023-03-08T22:26:51.577Z,25.80
2023-03-08T22:29:20.036Z,23.00
2023-03-08T22:31:48.482Z,21.10
2023-03-08T22:34:17.151Z,21.00
2023-03-08T22:36:45.502Z,21.10
2023-03-08T22:39:13.878Z,19.60
2023-03-08T22:41:42.293Z,19.30
2023-03-08T22:59:47.879Z,20.00
2023-03-08T23:02:16.253Z,20.90
2023-03-08T23:04:44.746Z,23.40
2023-03-08T23:07:13.147Z,21.10
2023-03-08T23:09:41.741Z,21.50
2023-03-08T23:12:10.068Z,20.70
2023-03-08T23:16:12.695Z,22.10
2023-03-08T23:18:59.237Z,19.50
2023-03-08T23:21:30.025Z,20.80
2023-03-08T23:25:25.837Z,23.10
2023-03-08T23:27:55.038Z,21.60
2023-03-08T23:30:23.940Z,20.70
2023-03-08T23:32:52.709Z,24.90
2023-03-08T23:35:21.759Z,22.50
2023-03-08T23:37:50.814Z,22.20
2023-03-08T23:40:19.563Z,23.40
2023-03-08T23:42:47.981Z,22.10
2023-03-08T23:45:16.398Z,20.90
2023-03-08T23:47:44.699Z,22.00
2023-03-08T23:50:13.053Z,21.00
2023-03-08T23:52:41.440Z,21.80
2023-03-08T23:55:11.211Z,20.50
2023-03-08T23:57:39.667Z,22.50
